ADDS METAR Data INFO
IDs: Format: Raw Decoded Include TAF

Data at: 0752 UTC 23 Apr 2018

KORG 230735Z AUTO 00000KT 10SM CLR 11/11 A3002 RMK AO2 T01100110
KORG 230715Z AUTO 00000KT 10SM CLR 11/11 A3003 RMK AO2 T01120112
KORG 230655Z AUTO 00000KT 10SM CLR 12/12 A3003 RMK AO2 T01160116
KORG 230635Z AUTO 00000KT 10SM CLR 12/12 A3003 RMK AO2 T01170115
KORG 230615Z AUTO 00000KT 10SM CLR 13/12 A3003 RMK AO2 T01340121
KORG 230555Z AUTO 00000KT 10SM CLR 14/12 A3003 RMK AO2 T01400122 10196 20140 402080140
KORG 230535Z AUTO 34003KT 10SM CLR 15/12 A3003 RMK AO2 T01450123
KORG 230515Z AUTO 33003KT 10SM CLR 15/12 A3003 RMK AO2 T01500124
KORG 230455Z AUTO 32004KT 10SM CLR 15/13 A3003 RMK AO2 T01530125
KORG 230435Z AUTO 33004KT 10SM CLR 15/13 A3002 RMK AO2 T01520128
KORG 230415Z AUTO 33003KT 10SM CLR 15/13 A3002 RMK AO2 T01510131
KORG 230355Z AUTO 30004KT 10SM CLR 16/14 A3003 RMK AO2 T01550135
KORG 230335Z AUTO 29003KT 10SM CLR 16/14 A3002 RMK AO2 T01550136
KORG 230315Z AUTO 30003KT 10SM CLR 15/14 A3002 RMK AO2 T01510140
KORG 230255Z AUTO 00000KT 10SM CLR 15/14 A3002 RMK AO2 T01470140
KORG 230235Z AUTO 00000KT 10SM CLR 15/14 A3001 RMK AO2 T01500142
KORG 230215Z AUTO 00000KT 10SM CLR 16/14 A3001 RMK AO2 T01560141
KORG 230155Z AUTO 29003KT 10SM CLR 15/14 A3000 RMK AO2 T01510143
KORG 230135Z AUTO 29003KT 10SM CLR 15/15 A3000 RMK AO2 T01540145
KORG 230115Z AUTO 30003KT 10SM CLR 17/14 A2999 RMK AO2 T01660141
KORG 230055Z AUTO 00000KT 10SM CLR 17/15 A2998 RMK AO2 T01670145
KORG 230035Z AUTO 00000KT 10SM CLR 18/14 A2998 RMK AO2 T01840138
KORG 230015Z AUTO 00000KT 10SM CLR 19/14 A2997 RMK AO2 T01920136
KORG 222355Z AUTO 30003KT 10SM CLR 20/14 A2997 RMK AO2 T01960139 10203 20164
KORG 222335Z AUTO 32003KT 10SM CLR 20/14 A2997 RMK AO2 T01980138
KORG 222315Z AUTO 32007KT 10SM CLR 20/14 A2997 RMK AO2 T02010136
KORG 222255Z AUTO 30005KT 10SM CLR 20/14 A2997 RMK AO2 T02000137
KORG 222235Z AUTO 32005KT 10SM CLR 20/14 A2997 RMK AO2 T02020138
KORG 222215Z AUTO 31005KT 10SM CLR 20/14 A2997 RMK AO2 T02000137
KORG 222155Z AUTO 31007KT 270V330 10SM CLR 20/14 A2997 RMK AO2 T01970136
KORG 222135Z AUTO 31008KT 10SM CLR 20/14 A2997 RMK AO2 T01950136
KORG 222115Z AUTO 32007KT 10SM CLR 19/14 A2998 RMK AO2 T01910135
KORG 222055Z AUTO 33007KT 10SM SCT023 19/13 A2999 RMK AO2 T01850134
KORG 222035Z AUTO 33009KT 10SM BKN019 18/14 A3000 RMK AO2 T01810138
KORG 222015Z AUTO 33007KT 10SM OVC015 17/14 A3000 RMK AO2 T01720140
KORG 221955Z AUTO 33007G15KT 10SM OVC015 17/14 A3001 RMK AO2 T01650139
KORG 221935Z AUTO 31007KT 10SM OVC015 17/14 A3002 RMK AO2 T01650142
KORG 221915Z AUTO 31010G16KT 10SM BKN012 OVC018 17/14 A3002 RMK AO2 T01650143
KORG 221855Z AUTO 32007KT 10SM OVC014 17/15 A3001 RMK AO2 T01730151
KORG 221835Z AUTO 33010G14KT 10SM BKN018 OVC024 18/15 A3001 RMK AO2 T01780151
KORG 221815Z AUTO 32008G16KT 290V350 10SM OVC021 19/15 A3001 RMK AO2 T01870153
KORG 221755Z AUTO 30008KT 270V330 10SM OVC020 19/16 A3001 RMK AO2 T01860159 10205 20178
KORG 221735Z AUTO 30008KT 10SM OVC017 18/16 A3001 RMK AO2 T01810161
KORG 221715Z AUTO 31007G15KT 10SM OVC015 18/16 A3001 RMK AO2 T01810164
KORG 221655Z AUTO 29008KT 10SM OVC015 19/17 A3000 RMK AO2 T01870169
KORG 221635Z AUTO 31006KT 10SM OVC013 18/17 A3000 RMK AO2 T01810168
KORG 221615Z AUTO 31006KT 10SM OVC013 19/17 A3000 RMK AO2 T01850170
KORG 221555Z AUTO 33006KT 10SM BKN015 OVC020 19/17 A3000 RMK AO2 T01880171
KORG 221535Z AUTO 34005KT 10SM OVC017 19/18 A2999 RMK AO2 T01920175
KORG 221515Z AUTO 33006KT 10SM OVC015 20/18 A2999 RMK AO2 T01970179
KORG 221455Z AUTO 32007KT 10SM BKN013 BKN018 BKN039 21/19 A2998 RMK AO2 T02050185
KORG 221435Z AUTO 33005KT 10SM SCT009 OVC013 19/18 A2998 RMK AO2 T01920182
KORG 221415Z AUTO 30005KT 10SM BKN007 OVC012 19/19 A2998 RMK AO2 T01930189
KORG 221355Z AUTO 32006G15KT 280V350 5SM BR OVC007 19/19 A2998 RMK AO2 T01860186
KORG 221335Z AUTO 32007KT 3SM BR OVC007 19/19 A2997 RMK AO2 T01870187
KORG 221315Z AUTO 31005KT 10SM OVC007 19/19 A2997 RMK AO2 T01900190
KORG 221255Z AUTO 31004KT 10SM OVC007 19/19 A2996 RMK AO2 T01880188
KORG 221235Z AUTO 31006KT 10SM BKN007 BKN015 BKN020 19/19 A2995 RMK AO2 T01860186
KORG 221215Z AUTO 32004KT 10SM SCT007 BKN045 19/19 A2993 RMK AO2 T01850185
KORG 221155Z AUTO 33004KT 10SM SCT007 BKN047 19/19 A2992 RMK AO2 60184 70205 T01850185 10208 20185
KORG 221135Z AUTO 34005KT 10SM SCT007 SCT020 SCT047 19/19 A2991 RMK AO2 T01860186
KORG 221115Z AUTO 35004KT 10SM BKN005 OVC018 19/19 A2990 RMK AO2 T01910191
KORG 221055Z AUTO 34007G15KT 10SM BKN005 OVC013 20/20 A2990 RMK AO2 P0001 T01950195
KORG 221035Z AUTO 30005KT 7SM SCT010 OVC016 20/20 A2989 RMK AO2 P0001 T01950195
KORG 221015Z AUTO 29003KT 7SM OVC018 20/20 A2988 RMK AO2 T01950195
KORG 220955Z AUTO 28003KT 7SM SCT008 BKN012 OVC018 20/20 A2988 RMK AO2 T01970197
KORG 220935Z AUTO 25004KT 7SM OVC010 20/20 A2988 RMK AO2 T02000200
KORG 220915Z AUTO 00000KT 7SM OVC010 20/20 A2988 RMK AO2 T02010200
KORG 220855Z AUTO 16004KT 7SM RA OVC012 20/20 A2988 RMK AO2 P0070 60183 T02000199
KORG 220835Z AUTO 16006G15KT 5SM RA SCT007 BKN012 OVC021 20/20 A2989 RMK AO2 P0068 T02010198
KORG 220815Z AUTO 19008KT 3SM +RA BKN007 OVC014 20/20 A2990 RMK AO2 P0047 T02020202
KORG 220755Z AUTO 16016G22KT 1 1/2SM +RA OVC007 20/20 A2990 RMK AO2 LTG DSNT E P0071 T02030203
KORG 220735Z AUTO 18008G14KT 140V210 3SM RA BKN005 OVC010 21/21 A2992 RMK AO2 LTG DSNT E P0037 T02070207
KORG 220715Z AUTO 17007G14KT 2SM /VCTSRA OVC005 21/21 A2993 RMK AO2 LTG DSNT S P0011 T02080208
KORG 220655Z AUTO 13011G19KT 3SM RA BKN005 OVC014 21/21 A2990 RMK AO2 LTG DSNT E AND S P0039 T02080208
KORG 220635Z AUTO 13009KT 4SM VCTSRA BKN007 OVC011 21/21 A2992 RMK AO2 LTG DSNT S P0025 T02070207
KORG 220615Z AUTO 13009KT 4SM +RA BKN007 OVC011 21/21 A2993 RMK AO2 LTG DSNT NE THRU SW P0011 T02060206
KORG 220555Z AUTO 14008KT 2 1/2SM /VCTSRA OVC007 21/21 A2995 RMK AO2 LTG DSNT SE AND SW P0021 60021 T02080208 10216 20207 402400145
KORG 220535Z AUTO 11007KT 5SM TSRA OVC009 21/21 A2994 RMK AO2 LTG DSNT NE THRU S P0010 T02080207
KORG 220515Z AUTO 14009KT 7SM RA OVC011 21/21 A2995 RMK AO2 LTG DSNT ALQS P0001 T02100205
KORG 220455Z AUTO 14007G15KT 7SM -VCTSRA OVC011 21/20 A2994 RMK AO2 LTG DSNT SW THRU NE T02100203
KORG 220435Z AUTO 13011G15KT 10SM OVC011 21/20 A2993 RMK AO2 LTG DSNT W THRU NE T02120202
KORG 220415Z AUTO 14014G17KT 10SM OVC011 21/20 A2993 RMK AO2 LTG DSNT N AND NW T02110201
KORG 220355Z AUTO 14005KT 10SM OVC011 21/20 A2995 RMK AO2 LTG DSNT W THRU N T02100201
KORG 220335Z AUTO 13011G14KT 10SM OVC011 21/20 A2994 RMK AO2 LTG DSNT SW THRU NW T02100200
KORG 220315Z AUTO 13009G14KT 10SM OVC011 21/20 A2995 RMK AO2 LTG DSNT W T02070200
KORG 220255Z AUTO 13009G15KT 10SM -RA OVC011 21/20 A2995 RMK AO2 LTG DSNT NW T02100198
KORG 220235Z AUTO 13008G18KT 100V160 10SM BKN011 BKN048 21/20 A2995 RMK AO2 T02100198
KORG 220215Z AUTO 13010G16KT 10SM BKN013 21/20 A2996 RMK AO2 LTG DSNT W T02100197
KORG 220155Z AUTO 14013G19KT 10SM SCT013 BKN065 BKN090 21/20 A2995 RMK AO2 LTG DSNT W T02100196
KORG 220135Z AUTO 14010KT 10SM VCTS SCT013 SCT037 OVC065 21/20 A2998 RMK AO2 LTG DSNT W T02100195
KORG 220115Z AUTO 13008G14KT 10SM SCT015 SCT037 OVC065 21/20 A2998 RMK AO2 T02110195
KORG 220055Z AUTO 13009KT 10SM SCT015 BKN030 BKN045 21/19 A2997 RMK AO2 LTG DSNT N T02110193
KORG 220035Z AUTO 13010G16KT 10SM SCT030 BKN070 OVC080 21/19 A2997 RMK AO2 T02140192
KORG 220015Z AUTO 13012G20KT 10SM OVC070 22/19 A2998 RMK AO2 T02160191
KORG 212355Z AUTO 13011G15KT 10SM SCT030 SCT035 OVC070 22/19 A2998 RMK AO2 T02160190 10240 20216
KORG 212335Z AUTO 13010G15KT 10SM SCT028 OVC070 22/19 A2999 RMK AO2 T02190190
KORG 212315Z AUTO 13011G17KT 10SM BKN026 BKN034 OVC070 22/19 A2999 RMK AO2 T02180190
KORG 212255Z AUTO 13009G15KT 10SM BKN026 BKN037 OVC070 22/19 A2999 RMK AO2 T02170188
KORG 212235Z AUTO 14006KT 10SM SCT018 SCT024 OVC070 22/19 A3000 RMK AO2 LTG DSNT W T02200190
KORG 212215Z AUTO 14010G16KT 10SM BKN021 OVC028 22/19 A3000 RMK AO2 LTG DSNT NW T02210190
KORG 212155Z AUTO 13010G14KT 10SM BKN023 OVC027 22/19 A3000 RMK AO2 T02240189
KORG 212135Z AUTO 14010G16KT 10SM SCT020 OVC029 23/19 A3000 RMK AO2 T02250188
KORG 212115Z AUTO 16011G17KT 10SM SCT022 OVC029 23/19 A3001 RMK AO2 T02270188
KORG 212055Z AUTO 15008G14KT 10SM BKN022 OVC027 23/19 A3004 RMK AO2 T02250187
KORG 212035Z AUTO 15010G17KT 10SM OVC025 23/19 A3003 RMK AO2 T02300188
KORG 212015Z AUTO 15007KT 10SM OVC025 23/19 A3003 RMK AO2 T02300188
KORG 211955Z AUTO 14009G19KT 110V180 10SM BKN023 BKN030 OVC055 23/19 A3003 RMK AO2 T02330187